sensor_id;sensor_type;location;lat;lon;timestamp;temperature;humidity
42683;DHT22;28293;50.930;3.464;2022-10-16T00:01:57;14.10;83.00
42683;DHT22;28293;50.930;3.464;2022-10-16T00:04:23;14.00;83.40
42683;DHT22;28293;50.930;3.464;2022-10-16T00:06:48;14.00;83.80
42683;DHT22;28293;50.930;3.464;2022-10-16T00:09:14;13.90;83.90
42683;DHT22;28293;50.930;3.464;2022-10-16T00:11:39;13.90;84.10
42683;DHT22;28293;50.930;3.464;2022-10-16T00:14:07;13.90;84.30
42683;DHT22;28293;50.930;3.464;2022-10-16T00:16:33;13.90;84.40
42683;DHT22;28293;50.930;3.464;2022-10-16T00:18:59;13.80;84.70
42683;DHT22;28293;50.930;3.464;2022-10-16T00:21:26;13.90;84.70
42683;DHT22;28293;50.930;3.464;2022-10-16T00:23:57;13.80;84.80
42683;DHT22;28293;50.930;3.464;2022-10-16T00:26:24;13.80;85.00
42683;DHT22;28293;50.930;3.464;2022-10-16T00:28:51;13.80;85.10
42683;DHT22;28293;50.930;3.464;2022-10-16T00:31:17;13.70;85.30
42683;DHT22;28293;50.930;3.464;2022-10-16T00:33:43;13.70;85.50
42683;DHT22;28293;50.930;3.464;2022-10-16T00:36:13;13.70;85.70
42683;DHT22;28293;50.930;3.464;2022-10-16T00:38:38;13.70;85.70
42683;DHT22;28293;50.930;3.464;2022-10-16T00:41:05;13.60;85.90
42683;DHT22;28293;50.930;3.464;2022-10-16T00:43:50;13.70;86.00
42683;DHT22;28293;50.930;3.464;2022-10-16T00:48:42;13.60;86.10
42683;DHT22;28293;50.930;3.464;2022-10-16T00:51:09;13.60;86.30
42683;DHT22;28293;50.930;3.464;2022-10-16T00:53:34;13.60;86.40
42683;DHT22;28293;50.930;3.464;2022-10-16T00:56:00;13.60;86.50
42683;DHT22;28293;50.930;3.464;2022-10-16T00:58:26;13.60;86.50
42683;DHT22;28293;50.930;3.464;2022-10-16T01:00:52;13.60;86.60
42683;DHT22;28293;50.930;3.464;2022-10-16T01:03:28;13.60;86.60
42683;DHT22;28293;50.930;3.464;2022-10-16T01:06:06;13.60;86.60
42683;DHT22;28293;50.930;3.464;2022-10-16T01:08:35;13.60;86.70
42683;DHT22;28293;50.930;3.464;2022-10-16T01:11:27;13.60;86.70
42683;DHT22;28293;50.930;3.464;2022-10-16T01:13:54;13.60;86.90
42683;DHT22;28293;50.930;3.464;2022-10-16T01:16:40;13.60;87.00
42683;DHT22;28293;50.930;3.464;2022-10-16T01:21:54;13.60;87.10
42683;DHT22;28293;50.930;3.464;2022-10-16T01:24:30;13.60;87.10
42683;DHT22;28293;50.930;3.464;2022-10-16T01:29:45;13.60;87.20
42683;DHT22;28293;50.930;3.464;2022-10-16T01:37:49;13.60;87.20
42683;DHT22;28293;50.930;3.464;2022-10-16T01:40:16;13.60;87.10
42683;DHT22;28293;50.930;3.464;2022-10-16T01:42:45;13.60;87.30
42683;DHT22;28293;50.930;3.464;2022-10-16T01:45:12;13.60;87.20
42683;DHT22;28293;50.930;3.464;2022-10-16T01:47:39;13.60;87.30
42683;DHT22;28293;50.930;3.464;2022-10-16T01:50:04;13.60;87.20
42683;DHT22;28293;50.930;3.464;2022-10-16T01:52:32;13.60;87.30
42683;DHT22;28293;50.930;3.464;2022-10-16T01:54:59;13.60;87.30
42683;DHT22;28293;50.930;3.464;2022-10-16T01:57:26;13.60;87.40
42683;DHT22;28293;50.930;3.464;2022-10-16T01:59:54;13.60;87.50
42683;DHT22;28293;50.930;3.464;2022-10-16T02:02:21;13.60;87.40
42683;DHT22;28293;50.930;3.464;2022-10-16T02:07:42;13.60;87.50
42683;DHT22;28293;50.930;3.464;2022-10-16T02:10:08;13.60;87.40
42683;DHT22;28293;50.930;3.464;2022-10-16T02:12:35;13.50;87.50
42683;DHT22;28293;50.930;3.464;2022-10-16T02:15:02;13.50;87.50
42683;DHT22;28293;50.930;3.464;2022-10-16T02:17:27;13.60;87.50
42683;DHT22;28293;50.930;3.464;2022-10-16T02:19:53;13.50;87.50
42683;DHT22;28293;50.930;3.464;2022-10-16T02:22:26;13.50;87.50
42683;DHT22;28293;50.930;3.464;2022-10-16T02:25:01;13.40;87.50
42683;DHT22;28293;50.930;3.464;2022-10-16T02:27:34;13.40;87.60
42683;DHT22;28293;50.930;3.464;2022-10-16T02:32:33;13.40;87.70
42683;DHT22;28293;50.930;3.464;2022-10-16T02:34:59;13.40;87.70
42683;DHT22;28293;50.930;3.464;2022-10-16T02:37:25;13.40;87.70
42683;DHT22;28293;50.930;3.464;2022-10-16T02:39:52;13.40;87.80
42683;DHT22;28293;50.930;3.464;2022-10-16T02:42:18;13.40;87.70
42683;DHT22;28293;50.930;3.464;2022-10-16T02:44:44;13.40;87.70
42683;DHT22;28293;50.930;3.464;2022-10-16T02:47:09;13.40;87.70
42683;DHT22;28293;50.930;3.464;2022-10-16T02:49:35;13.30;87.80
42683;DHT22;28293;50.930;3.464;2022-10-16T02:52:00;13.30;87.80
42683;DHT22;28293;50.930;3.464;2022-10-16T02:54:26;13.30;87.80
42683;DHT22;28293;50.930;3.464;2022-10-16T02:56:51;13.30;87.80
42683;DHT22;28293;50.930;3.464;2022-10-16T02:59:17;13.30;88.00
42683;DHT22;28293;50.930;3.464;2022-10-16T03:01:42;13.30;87.90
42683;DHT22;28293;50.930;3.464;2022-10-16T03:04:08;13.30;88.00
42683;DHT22;28293;50.930;3.464;2022-10-16T03:06:34;13.30;88.00
42683;DHT22;28293;50.930;3.464;2022-10-16T03:08:59;13.20;88.00
42683;DHT22;28293;50.930;3.464;2022-10-16T03:11:25;13.20;88.00
42683;DHT22;28293;50.930;3.464;2022-10-16T03:13:51;13.20;88.00
42683;DHT22;28293;50.930;3.464;2022-10-16T03:16:17;13.20;88.10
42683;DHT22;28293;50.930;3.464;2022-10-16T03:18:42;13.20;88.20
42683;DHT22;28293;50.930;3.464;2022-10-16T03:21:08;13.20;88.10
42683;DHT22;28293;50.930;3.464;2022-10-16T03:23:33;13.10;88.00
42683;DHT22;28293;50.930;3.464;2022-10-16T03:25:59;13.20;88.00
42683;DHT22;28293;50.930;3.464;2022-10-16T03:28:24;13.20;88.00
42683;DHT22;28293;50.930;3.464;2022-10-16T03:30:50;13.20;88.10
42683;DHT22;28293;50.930;3.464;2022-10-16T03:33:15;13.20;88.10
42683;DHT22;28293;50.930;3.464;2022-10-16T03:35:41;13.20;88.10
42683;DHT22;28293;50.930;3.464;2022-10-16T03:38:06;13.10;88.10
42683;DHT22;28293;50.930;3.464;2022-10-16T03:40:32;13.10;88.10
42683;DHT22;28293;50.930;3.464;2022-10-16T03:42:58;13.10;88.20
42683;DHT22;28293;50.930;3.464;2022-10-16T03:45:24;13.10;88.10
42683;DHT22;28293;50.930;3.464;2022-10-16T03:47:49;13.10;88.00
42683;DHT22;28293;50.930;3.464;2022-10-16T03:50:15;13.10;88.00
42683;DHT22;28293;50.930;3.464;2022-10-16T03:52:40;13.10;88.10
42683;DHT22;28293;50.930;3.464;2022-10-16T03:55:06;13.10;88.30
42683;DHT22;28293;50.930;3.464;2022-10-16T03:57:31;13.00;88.30
42683;DHT22;28293;50.930;3.464;2022-10-16T03:59:57;13.00;88.30
42683;DHT22;28293;50.930;3.464;2022-10-16T04:02:23;13.00;88.30
42683;DHT22;28293;50.930;3.464;2022-10-16T04:04:48;13.00;88.30
42683;DHT22;28293;50.930;3.464;2022-10-16T04:07:14;13.00;88.40
42683;DHT22;28293;50.930;3.464;2022-10-16T04:09:39;12.90;88.40
42683;DHT22;28293;50.930;3.464;2022-10-16T04:12:05;12.90;88.50
42683;DHT22;28293;50.930;3.464;2022-10-16T04:14:30;12.90;88.50
42683;DHT22;28293;50.930;3.464;2022-10-16T04:16:56;12.90;88.50
42683;DHT22;28293;50.930;3.464;2022-10-16T04:19:22;12.90;88.50
42683;DHT22;28293;50.930;3.464;2022-10-16T04:21:47;12.90;88.50
42683;DHT22;28293;50.930;3.464;2022-10-16T04:24:13;12.80;88.60
42683;DHT22;28293;50.930;3.464;2022-10-16T04:26:38;12.90;88.50
42683;DHT22;28293;50.930;3.464;2022-10-16T04:29:04;12.80;88.60
42683;DHT22;28293;50.930;3.464;2022-10-16T04:31:29;12.90;88.60
42683;DHT22;28293;50.930;3.464;2022-10-16T04:33:55;12.90;88.60
42683;DHT22;28293;50.930;3.464;2022-10-16T04:36:20;12.80;88.50
42683;DHT22;28293;50.930;3.464;2022-10-16T04:38:46;12.80;88.70
42683;DHT22;28293;50.930;3.464;2022-10-16T04:41:12;12.80;88.70
42683;DHT22;28293;50.930;3.464;2022-10-16T04:43:37;12.80;88.80
42683;DHT22;28293;50.930;3.464;2022-10-16T04:46:03;12.80;88.70
42683;DHT22;28293;50.930;3.464;2022-10-16T04:48:30;12.80;88.70
42683;DHT22;28293;50.930;3.464;2022-10-16T04:50:55;12.80;88.70
42683;DHT22;28293;50.930;3.464;2022-10-16T04:53:21;12.80;88.70
42683;DHT22;28293;50.930;3.464;2022-10-16T04:55:46;12.90;88.90
42683;DHT22;28293;50.930;3.464;2022-10-16T04:58:12;12.90;88.80
42683;DHT22;28293;50.930;3.464;2022-10-16T05:00:38;12.90;88.80
42683;DHT22;28293;50.930;3.464;2022-10-16T05:03:03;13.00;88.70
42683;DHT22;28293;50.930;3.464;2022-10-16T05:05:32;13.00;88.80
42683;DHT22;28293;50.930;3.464;2022-10-16T05:07:58;13.00;88.70
42683;DHT22;28293;50.930;3.464;2022-10-16T05:10:23;13.10;88.60
42683;DHT22;28293;50.930;3.464;2022-10-16T05:12:49;13.10;88.60
42683;DHT22;28293;50.930;3.464;2022-10-16T05:15:15;13.10;88.60
42683;DHT22;28293;50.930;3.464;2022-10-16T05:17:40;13.10;88.50
42683;DHT22;28293;50.930;3.464;2022-10-16T05:20:06;13.10;88.60
42683;DHT22;28293;50.930;3.464;2022-10-16T05:22:31;13.10;88.50
42683;DHT22;28293;50.930;3.464;2022-10-16T05:24:57;13.20;88.50
42683;DHT22;28293;50.930;3.464;2022-10-16T05:27:22;13.20;88.30
42683;DHT22;28293;50.930;3.464;2022-10-16T05:29:48;13.30;88.20
42683;DHT22;28293;50.930;3.464;2022-10-16T05:32:16;13.30;88.00
42683;DHT22;28293;50.930;3.464;2022-10-16T05:34:42;13.30;88.10
42683;DHT22;28293;50.930;3.464;2022-10-16T05:37:08;13.20;88.00
42683;DHT22;28293;50.930;3.464;2022-10-16T05:39:34;13.20;88.10
42683;DHT22;28293;50.930;3.464;2022-10-16T05:41:59;13.20;88.10
42683;DHT22;28293;50.930;3.464;2022-10-16T05:44:25;13.20;88.00
42683;DHT22;28293;50.930;3.464;2022-10-16T05:46:50;13.10;88.10
42683;DHT22;28293;50.930;3.464;2022-10-16T05:49:16;13.10;88.10
42683;DHT22;28293;50.930;3.464;2022-10-16T05:51:41;13.10;88.10
42683;DHT22;28293;50.930;3.464;2022-10-16T05:54:08;13.10;88.20
42683;DHT22;28293;50.930;3.464;2022-10-16T05:56:34;13.10;88.20
42683;DHT22;28293;50.930;3.464;2022-10-16T05:58:59;13.10;88.30
42683;DHT22;28293;50.930;3.464;2022-10-16T06:01:25;13.00;88.20
42683;DHT22;28293;50.930;3.464;2022-10-16T06:03:51;13.00;88.30
42683;DHT22;28293;50.930;3.464;2022-10-16T06:06:18;13.00;88.30
42683;DHT22;28293;50.930;3.464;2022-10-16T06:08:45;12.90;88.40
42683;DHT22;28293;50.930;3.464;2022-10-16T06:11:11;12.90;88.50
42683;DHT22;28293;50.930;3.464;2022-10-16T06:13:37;12.90;88.50
42683;DHT22;28293;50.930;3.464;2022-10-16T06:16:04;12.90;88.60
42683;DHT22;28293;50.930;3.464;2022-10-16T06:18:30;12.80;88.60
42683;DHT22;28293;50.930;3.464;2022-10-16T06:20:56;12.90;88.70
42683;DHT22;28293;50.930;3.464;2022-10-16T06:23:21;12.90;88.60
42683;DHT22;28293;50.930;3.464;2022-10-16T06:25:47;12.90;88.60
42683;DHT22;28293;50.930;3.464;2022-10-16T06:28:13;12.90;88.60
42683;DHT22;28293;50.930;3.464;2022-10-16T06:30:39;12.90;88.60
42683;DHT22;28293;50.930;3.464;2022-10-16T06:33:04;12.90;88.60
42683;DHT22;28293;50.930;3.464;2022-10-16T06:35:30;12.90;88.50
42683;DHT22;28293;50.930;3.464;2022-10-16T06:37:57;12.80;88.50
42683;DHT22;28293;50.930;3.464;2022-10-16T06:40:23;12.80;88.60
42683;DHT22;28293;50.930;3.464;2022-10-16T06:42:48;12.90;88.60
42683;DHT22;28293;50.930;3.464;2022-10-16T06:45:14;12.80;88.60
42683;DHT22;28293;50.930;3.464;2022-10-16T06:47:39;12.90;88.50
42683;DHT22;28293;50.930;3.464;2022-10-16T06:50:05;12.90;88.60
42683;DHT22;28293;50.930;3.464;2022-10-16T06:52:32;13.00;88.50
42683;DHT22;28293;50.930;3.464;2022-10-16T06:54:57;13.00;88.50
42683;DHT22;28293;50.930;3.464;2022-10-16T06:57:23;12.90;88.50
42683;DHT22;28293;50.930;3.464;2022-10-16T06:59:48;13.00;88.50
42683;DHT22;28293;50.930;3.464;2022-10-16T07:02:14;13.00;88.50
42683;DHT22;28293;50.930;3.464;2022-10-16T07:04:40;13.00;88.50
42683;DHT22;28293;50.930;3.464;2022-10-16T07:07:05;13.00;88.50
42683;DHT22;28293;50.930;3.464;2022-10-16T07:09:31;13.10;88.50
42683;DHT22;28293;50.930;3.464;2022-10-16T07:11:56;13.10;88.40
42683;DHT22;28293;50.930;3.464;2022-10-16T07:14:22;13.10;88.40
42683;DHT22;28293;50.930;3.464;2022-10-16T07:16:47;13.10;88.30
42683;DHT22;28293;50.930;3.464;2022-10-16T07:19:13;13.10;88.20
42683;DHT22;28293;50.930;3.464;2022-10-16T07:21:40;13.20;88.20
42683;DHT22;28293;50.930;3.464;2022-10-16T07:24:07;13.20;88.20
42683;DHT22;28293;50.930;3.464;2022-10-16T07:26:33;13.30;88.20
42683;DHT22;28293;50.930;3.464;2022-10-16T07:29:00;13.30;88.10
42683;DHT22;28293;50.930;3.464;2022-10-16T07:31:26;13.40;87.90
42683;DHT22;28293;50.930;3.464;2022-10-16T07:33:52;13.50;87.80
42683;DHT22;28293;50.930;3.464;2022-10-16T07:36:18;13.50;87.60
42683;DHT22;28293;50.930;3.464;2022-10-16T07:38:44;13.60;87.50
42683;DHT22;28293;50.930;3.464;2022-10-16T07:41:12;13.60;87.40
42683;DHT22;28293;50.930;3.464;2022-10-16T07:43:38;13.60;87.40
42683;DHT22;28293;50.930;3.464;2022-10-16T07:46:03;13.70;87.30
42683;DHT22;28293;50.930;3.464;2022-10-16T07:48:30;13.80;87.10
42683;DHT22;28293;50.930;3.464;2022-10-16T07:50:59;13.90;86.70
42683;DHT22;28293;50.930;3.464;2022-10-16T07:53:25;14.00;86.60
42683;DHT22;28293;50.930;3.464;2022-10-16T07:55:51;14.10;86.50
42683;DHT22;28293;50.930;3.464;2022-10-16T07:58:16;14.20;86.20
42683;DHT22;28293;50.930;3.464;2022-10-16T08:00:42;14.30;85.70
42683;DHT22;28293;50.930;3.464;2022-10-16T08:03:08;14.40;85.50
42683;DHT22;28293;50.930;3.464;2022-10-16T08:05:33;14.60;85.30
42683;DHT22;28293;50.930;3.464;2022-10-16T08:08:00;14.60;84.90
42683;DHT22;28293;50.930;3.464;2022-10-16T08:10:26;14.70;84.40
42683;DHT22;28293;50.930;3.464;2022-10-16T08:12:52;14.80;83.80
42683;DHT22;28293;50.930;3.464;2022-10-16T08:15:18;15.00;83.30
42683;DHT22;28293;50.930;3.464;2022-10-16T08:17:43;15.00;82.70
42683;DHT22;28293;50.930;3.464;2022-10-16T08:20:09;15.10;82.50
42683;DHT22;28293;50.930;3.464;2022-10-16T08:22:35;15.10;82.60
42683;DHT22;28293;50.930;3.464;2022-10-16T08:25:00;15.10;82.60
42683;DHT22;28293;50.930;3.464;2022-10-16T08:27:31;15.10;82.60
42683;DHT22;28293;50.930;3.464;2022-10-16T08:29:56;15.10;82.60
42683;DHT22;28293;50.930;3.464;2022-10-16T08:32:22;15.30;82.50
42683;DHT22;28293;50.930;3.464;2022-10-16T08:34:47;15.50;82.40
42683;DHT22;28293;50.930;3.464;2022-10-16T08:37:13;15.80;81.90
42683;DHT22;28293;50.930;3.464;2022-10-16T08:39:39;16.10;80.80
42683;DHT22;28293;50.930;3.464;2022-10-16T08:45:01;16.30;79.20
42683;DHT22;28293;50.930;3.464;2022-10-16T08:50:00;16.50;78.00
42683;DHT22;28293;50.930;3.464;2022-10-16T08:52:30;16.60;77.70
42683;DHT22;28293;50.930;3.464;2022-10-16T08:54:58;16.50;77.70
42683;DHT22;28293;50.930;3.464;2022-10-16T08:57:24;16.40;78.50
42683;DHT22;28293;50.930;3.464;2022-10-16T08:59:51;16.50;78.40
42683;DHT22;28293;50.930;3.464;2022-10-16T09:02:33;16.60;78.30
42683;DHT22;28293;50.930;3.464;2022-10-16T09:10:22;17.20;76.60
42683;DHT22;28293;50.930;3.464;2022-10-16T09:12:55;17.40;76.20
42683;DHT22;28293;50.930;3.464;2022-10-16T09:20:50;17.90;74.00
42683;DHT22;28293;50.930;3.464;2022-10-16T09:23:22;18.00;73.70
42683;DHT22;28293;50.930;3.464;2022-10-16T09:25:50;18.10;72.80
42683;DHT22;28293;50.930;3.464;2022-10-16T09:28:17;18.00;72.90
42683;DHT22;28293;50.930;3.464;2022-10-16T09:30:43;18.10;73.20
42683;DHT22;28293;50.930;3.464;2022-10-16T09:33:10;18.10;72.80
42683;DHT22;28293;50.930;3.464;2022-10-16T09:35:46;18.40;72.00
42683;DHT22;28293;50.930;3.464;2022-10-16T09:38:24;18.50;71.30
42683;DHT22;28293;50.930;3.464;2022-10-16T09:40:50;18.60;70.80
42683;DHT22;28293;50.930;3.464;2022-10-16T09:48:25;18.90;70.40
42683;DHT22;28293;50.930;3.464;2022-10-16T09:50:55;19.00;70.80
42683;DHT22;28293;50.930;3.464;2022-10-16T09:53:21;19.10;69.10
42683;DHT22;28293;50.930;3.464;2022-10-16T09:55:48;19.10;69.70
42683;DHT22;28293;50.930;3.464;2022-10-16T09:58:14;19.20;67.60
42683;DHT22;28293;50.930;3.464;2022-10-16T10:00:41;19.10;68.20
42683;DHT22;28293;50.930;3.464;2022-10-16T10:03:10;18.70;69.50
42683;DHT22;28293;50.930;3.464;2022-10-16T10:05:35;18.70;69.50
42683;DHT22;28293;50.930;3.464;2022-10-16T10:08:04;19.00;69.70
42683;DHT22;28293;50.930;3.464;2022-10-16T10:10:37;19.30;68.30
42683;DHT22;28293;50.930;3.464;2022-10-16T10:13:04;19.50;68.10
42683;DHT22;28293;50.930;3.464;2022-10-16T10:15:41;19.50;66.70
42683;DHT22;28293;50.930;3.464;2022-10-16T10:18:19;19.70;66.80
42683;DHT22;28293;50.930;3.464;2022-10-16T10:20:46;19.70;66.70
42683;DHT22;28293;50.930;3.464;2022-10-16T10:23:23;19.70;65.70
42683;DHT22;28293;50.930;3.464;2022-10-16T10:28:43;19.90;65.00
42683;DHT22;28293;50.930;3.464;2022-10-16T10:33:53;20.10;63.90
42683;DHT22;28293;50.930;3.464;2022-10-16T10:38:58;20.30;64.10
42683;DHT22;28293;50.930;3.464;2022-10-16T10:46:35;20.10;63.70
42683;DHT22;28293;50.930;3.464;2022-10-16T10:54:18;20.60;62.60
42683;DHT22;28293;50.930;3.464;2022-10-16T10:56:50;20.70;60.90
42683;DHT22;28293;50.930;3.464;2022-10-16T10:59:25;20.60;59.70
42683;DHT22;28293;50.930;3.464;2022-10-16T11:07:38;20.50;61.80
42683;DHT22;28293;50.930;3.464;2022-10-16T11:10:15;20.50;60.10
42683;DHT22;28293;50.930;3.464;2022-10-16T11:12:46;20.50;59.70
42683;DHT22;28293;50.930;3.464;2022-10-16T11:15:19;20.20;59.60
42683;DHT22;28293;50.930;3.464;2022-10-16T11:20:40;20.40;61.10
42683;DHT22;28293;50.930;3.464;2022-10-16T11:23:09;20.30;61.40
42683;DHT22;28293;50.930;3.464;2022-10-16T11:25:36;20.40;62.60
42683;DHT22;28293;50.930;3.464;2022-10-16T11:30:46;20.50;62.00
42683;DHT22;28293;50.930;3.464;2022-10-16T11:35:47;21.00;60.80
42683;DHT22;28293;50.930;3.464;2022-10-16T11:38:38;21.20;59.00
42683;DHT22;28293;50.930;3.464;2022-10-16T11:46:35;21.50;58.20
42683;DHT22;28293;50.930;3.464;2022-10-16T11:49:07;21.40;59.00
42683;DHT22;28293;50.930;3.464;2022-10-16T11:51:45;21.10;59.50
42683;DHT22;28293;50.930;3.464;2022-10-16T11:54:28;21.00;60.60
42683;DHT22;28293;50.930;3.464;2022-10-16T11:56:58;21.00;59.90
42683;DHT22;28293;50.930;3.464;2022-10-16T11:59:36;20.80;59.00
42683;DHT22;28293;50.930;3.464;2022-10-16T12:02:14;20.80;59.20
42683;DHT22;28293;50.930;3.464;2022-10-16T12:04:46;20.70;59.80
42683;DHT22;28293;50.930;3.464;2022-10-16T12:07:14;20.70;59.80
42683;DHT22;28293;50.930;3.464;2022-10-16T12:09:41;20.60;60.30
42683;DHT22;28293;50.930;3.464;2022-10-16T12:15:01;20.60;60.30
42683;DHT22;28293;50.930;3.464;2022-10-16T12:17:34;20.40;61.00
42683;DHT22;28293;50.930;3.464;2022-10-16T12:22:58;20.20;62.70
42683;DHT22;28293;50.930;3.464;2022-10-16T12:25:28;20.60;62.00
42683;DHT22;28293;50.930;3.464;2022-10-16T12:30:23;20.60;61.40
42683;DHT22;28293;50.930;3.464;2022-10-16T12:32:56;20.40;61.70
42683;DHT22;28293;50.930;3.464;2022-10-16T12:35:27;20.60;60.70
42683;DHT22;28293;50.930;3.464;2022-10-16T12:37:53;20.80;59.60
42683;DHT22;28293;50.930;3.464;2022-10-16T12:40:29;20.80;59.00
42683;DHT22;28293;50.930;3.464;2022-10-16T12:42:55;20.50;59.60
42683;DHT22;28293;50.930;3.464;2022-10-16T12:45:31;20.50;60.70
42683;DHT22;28293;50.930;3.464;2022-10-16T12:47:58;20.60;61.20
42683;DHT22;28293;50.930;3.464;2022-10-16T12:50:29;20.80;61.20
42683;DHT22;28293;50.930;3.464;2022-10-16T12:52:56;21.00;60.40
42683;DHT22;28293;50.930;3.464;2022-10-16T12:55:22;21.30;59.40
42683;DHT22;28293;50.930;3.464;2022-10-16T13:00:44;21.60;56.70
42683;DHT22;28293;50.930;3.464;2022-10-16T13:10:41;20.90;60.30
42683;DHT22;28293;50.930;3.464;2022-10-16T13:19:02;20.70;61.50
42683;DHT22;28293;50.930;3.464;2022-10-16T13:21:33;20.90;60.60
42683;DHT22;28293;50.930;3.464;2022-10-16T13:24:17;20.70;60.90
42683;DHT22;28293;50.930;3.464;2022-10-16T13:29:17;20.70;61.40
42683;DHT22;28293;50.930;3.464;2022-10-16T13:31:43;20.80;61.00
42683;DHT22;28293;50.930;3.464;2022-10-16T13:34:11;21.00;60.10
42683;DHT22;28293;50.930;3.464;2022-10-16T13:36:45;21.00;59.10
42683;DHT22;28293;50.930;3.464;2022-10-16T13:39:15;20.90;59.90
42683;DHT22;28293;50.930;3.464;2022-10-16T13:41:42;20.60;60.90
42683;DHT22;28293;50.930;3.464;2022-10-16T13:44:12;20.30;61.50
42683;DHT22;28293;50.930;3.464;2022-10-16T13:46:39;20.20;62.70
42683;DHT22;28293;50.930;3.464;2022-10-16T13:49:15;20.20;62.80
42683;DHT22;28293;50.930;3.464;2022-10-16T13:51:40;20.10;62.60
42683;DHT22;28293;50.930;3.464;2022-10-16T13:54:07;20.10;63.50
42683;DHT22;28293;50.930;3.464;2022-10-16T13:56:34;20.00;64.10
42683;DHT22;28293;50.930;3.464;2022-10-16T13:59:03;20.00;63.50
42683;DHT22;28293;50.930;3.464;2022-10-16T14:01:33;20.00;63.00
42683;DHT22;28293;50.930;3.464;2022-10-16T14:04:07;20.00;62.70
42683;DHT22;28293;50.930;3.464;2022-10-16T14:06:33;20.00;63.20
42683;DHT22;28293;50.930;3.464;2022-10-16T14:09:01;20.00;62.70
42683;DHT22;28293;50.930;3.464;2022-10-16T14:11:29;20.10;62.00
42683;DHT22;28293;50.930;3.464;2022-10-16T14:13:55;19.90;62.70
42683;DHT22;28293;50.930;3.464;2022-10-16T14:16:27;19.80;62.70
42683;DHT22;28293;50.930;3.464;2022-10-16T14:18:56;19.80;62.80
42683;DHT22;28293;50.930;3.464;2022-10-16T14:21:22;19.70;62.90
42683;DHT22;28293;50.930;3.464;2022-10-16T14:26:21;19.60;64.20
42683;DHT22;28293;50.930;3.464;2022-10-16T14:28:48;19.80;64.50
42683;DHT22;28293;50.930;3.464;2022-10-16T14:31:30;19.60;64.00
42683;DHT22;28293;50.930;3.464;2022-10-16T14:33:59;19.50;64.30
42683;DHT22;28293;50.930;3.464;2022-10-16T14:36:27;19.50;65.30
42683;DHT22;28293;50.930;3.464;2022-10-16T14:39:19;19.50;65.80
42683;DHT22;28293;50.930;3.464;2022-10-16T14:41:47;19.40;64.70
42683;DHT22;28293;50.930;3.464;2022-10-16T14:44:14;19.30;64.00
42683;DHT22;28293;50.930;3.464;2022-10-16T14:46:41;19.30;64.50
42683;DHT22;28293;50.930;3.464;2022-10-16T14:51:42;19.20;65.20
42683;DHT22;28293;50.930;3.464;2022-10-16T14:54:10;19.20;65.60
42683;DHT22;28293;50.930;3.464;2022-10-16T14:59:30;19.10;65.80
42683;DHT22;28293;50.930;3.464;2022-10-16T15:01:57;19.00;65.80
42683;DHT22;28293;50.930;3.464;2022-10-16T15:04:22;19.10;66.20
42683;DHT22;28293;50.930;3.464;2022-10-16T15:06:48;19.10;66.50
42683;DHT22;28293;50.930;3.464;2022-10-16T15:09:14;19.00;66.80
42683;DHT22;28293;50.930;3.464;2022-10-16T15:11:40;19.00;66.90
42683;DHT22;28293;50.930;3.464;2022-10-16T15:14:10;19.00;66.80
42683;DHT22;28293;50.930;3.464;2022-10-16T15:16:36;19.00;66.90
42683;DHT22;28293;50.930;3.464;2022-10-16T15:19:02;19.00;67.10
42683;DHT22;28293;50.930;3.464;2022-10-16T15:21:30;18.90;67.40
42683;DHT22;28293;50.930;3.464;2022-10-16T15:23:57;18.90;67.50
42683;DHT22;28293;50.930;3.464;2022-10-16T15:26:28;18.60;68.80
42683;DHT22;28293;50.930;3.464;2022-10-16T15:28:54;18.60;68.90
42683;DHT22;28293;50.930;3.464;2022-10-16T15:31:20;18.70;68.90
42683;DHT22;28293;50.930;3.464;2022-10-16T15:33:52;18.70;69.20
42683;DHT22;28293;50.930;3.464;2022-10-16T15:36:32;18.70;69.50
42683;DHT22;28293;50.930;3.464;2022-10-16T15:38:59;18.60;69.80
42683;DHT22;28293;50.930;3.464;2022-10-16T15:41:25;18.60;69.90
42683;DHT22;28293;50.930;3.464;2022-10-16T15:43:51;18.60;70.10
42683;DHT22;28293;50.930;3.464;2022-10-16T15:46:19;18.60;70.40
42683;DHT22;28293;50.930;3.464;2022-10-16T15:48:45;18.50;70.70
42683;DHT22;28293;50.930;3.464;2022-10-16T15:51:11;18.50;71.00
42683;DHT22;28293;50.930;3.464;2022-10-16T15:53:36;18.50;71.30
42683;DHT22;28293;50.930;3.464;2022-10-16T15:56:06;18.40;71.60
42683;DHT22;28293;50.930;3.464;2022-10-16T15:58:32;18.40;72.30
42683;DHT22;28293;50.930;3.464;2022-10-16T16:00:59;18.30;72.50
42683;DHT22;28293;50.930;3.464;2022-10-16T16:03:27;18.30;72.60
42683;DHT22;28293;50.930;3.464;2022-10-16T16:05:53;18.30;72.70
42683;DHT22;28293;50.930;3.464;2022-10-16T16:08:18;18.20;73.00
42683;DHT22;28293;50.930;3.464;2022-10-16T16:10:44;18.20;73.30
42683;DHT22;28293;50.930;3.464;2022-10-16T16:13:10;18.20;73.50
42683;DHT22;28293;50.930;3.464;2022-10-16T16:15:39;18.20;73.60
42683;DHT22;28293;50.930;3.464;2022-10-16T16:18:06;18.10;73.90
42683;DHT22;28293;50.930;3.464;2022-10-16T16:20:31;18.10;73.90
42683;DHT22;28293;50.930;3.464;2022-10-16T16:22:57;18.10;74.10
42683;DHT22;28293;50.930;3.464;2022-10-16T16:25:23;18.10;74.20
42683;DHT22;28293;50.930;3.464;2022-10-16T16:27:48;18.10;74.40
42683;DHT22;28293;50.930;3.464;2022-10-16T16:30:14;18.00;74.60
42683;DHT22;28293;50.930;3.464;2022-10-16T16:32:40;18.00;74.80
42683;DHT22;28293;50.930;3.464;2022-10-16T16:35:06;17.90;75.10
42683;DHT22;28293;50.930;3.464;2022-10-16T16:37:31;17.90;75.40
42683;DHT22;28293;50.930;3.464;2022-10-16T16:39:57;17.80;75.60
42683;DHT22;28293;50.930;3.464;2022-10-16T16:42:26;17.80;75.90
42683;DHT22;28293;50.930;3.464;2022-10-16T16:44:52;17.70;76.00
42683;DHT22;28293;50.930;3.464;2022-10-16T16:47:18;17.70;76.20
42683;DHT22;28293;50.930;3.464;2022-10-16T16:49:44;17.70;76.30
42683;DHT22;28293;50.930;3.464;2022-10-16T16:52:09;17.80;76.40
42683;DHT22;28293;50.930;3.464;2022-10-16T16:54:35;17.70;76.50
42683;DHT22;28293;50.930;3.464;2022-10-16T16:57:01;17.70;76.50
42683;DHT22;28293;50.930;3.464;2022-10-16T16:59:26;17.60;76.70
42683;DHT22;28293;50.930;3.464;2022-10-16T17:01:52;17.60;76.90
42683;DHT22;28293;50.930;3.464;2022-10-16T17:04:18;17.50;77.10
42683;DHT22;28293;50.930;3.464;2022-10-16T17:06:44;17.50;77.40
42683;DHT22;28293;50.930;3.464;2022-10-16T17:09:10;17.50;77.50
42683;DHT22;28293;50.930;3.464;2022-10-16T17:11:38;17.40;77.70
42683;DHT22;28293;50.930;3.464;2022-10-16T17:14:06;17.40;77.90
42683;DHT22;28293;50.930;3.464;2022-10-16T17:16:34;17.30;78.10
42683;DHT22;28293;50.930;3.464;2022-10-16T17:19:06;17.30;78.40
42683;DHT22;28293;50.930;3.464;2022-10-16T17:21:32;17.20;78.60
42683;DHT22;28293;50.930;3.464;2022-10-16T17:23:58;17.20;78.70
42683;DHT22;28293;50.930;3.464;2022-10-16T17:26:24;17.10;79.20